createdAt,value
2022-11-04T00:00:08.198Z,95618.75
2022-11-04T00:02:35.638Z,95613.59
2022-11-04T00:05:03.311Z,95619.78
2022-11-04T00:07:49.332Z,95622.03
2022-11-04T00:10:16.803Z,95625.97
2022-11-04T00:12:44.159Z,95611.06
2022-11-04T00:15:30.214Z,95606.06
2022-11-04T00:17:58.499Z,95623.06
2022-11-04T00:20:44.356Z,95618.91
2022-11-04T00:23:30.166Z,95614.13
2022-11-04T00:26:16.108Z,95612.28
2022-11-04T00:28:43.543Z,95618.06
2022-11-04T00:31:29.615Z,95606.66
2022-11-04T00:33:58.402Z,95598.56
2022-11-04T00:36:26.060Z,95616.56
2022-11-04T00:38:53.801Z,95611.56
2022-11-04T00:41:27.824Z,95594.03
2022-11-04T00:44:04.038Z,95613.22
2022-11-04T00:46:32.958Z,95586.13
2022-11-04T00:49:00.681Z,95573.31
2022-11-04T00:51:28.130Z,95596.66
2022-11-04T00:53:55.894Z,95595.59
2022-11-04T00:56:23.397Z,95588.38
2022-11-04T00:58:51.190Z,95595.81
2022-11-04T01:01:19.194Z,95583.59
2022-11-04T01:03:48.276Z,95585.63
2022-11-04T01:06:16.278Z,95571.34
2022-11-04T01:08:44.092Z,95591.56
2022-11-04T01:11:11.992Z,95565.69
2022-11-04T01:13:40.007Z,95577.88
2022-11-04T01:16:09.583Z,95579.75
2022-11-04T01:18:37.472Z,95584.47
2022-11-04T01:21:06.827Z,95581.38
2022-11-04T01:23:34.987Z,95575.19
2022-11-04T01:26:06.387Z,95574.28
2022-11-04T01:28:34.050Z,95557.72
2022-11-04T01:31:16.526Z,95576.28
2022-11-04T01:33:44.287Z,95573.41
2022-11-04T01:36:11.936Z,95569.22
2022-11-04T01:38:39.464Z,95570.69
2022-11-04T01:41:08.004Z,95568.38
2022-11-04T01:43:50.233Z,95565.66
2022-11-04T01:46:33.141Z,95550.53
2022-11-04T01:49:20.762Z,95559.44
2022-11-04T01:51:49.773Z,95553.03
2022-11-04T01:54:18.149Z,95528.78
2022-11-04T01:56:45.944Z,95553.81
2022-11-04T01:59:27.968Z,95555.38
2022-11-04T02:01:55.460Z,95549.38
2022-11-04T02:04:26.162Z,95553.25
2022-11-04T02:06:56.851Z,95549.13
2022-11-04T02:09:25.701Z,95544.16
2022-11-04T02:12:11.743Z,95547.03
2022-11-04T02:14:39.671Z,95541.44
2022-11-04T02:17:19.124Z,95540.16
2022-11-04T02:20:12.208Z,95530.84
2022-11-04T02:23:04.390Z,95524.41
2022-11-04T02:25:50.225Z,95527.72
2022-11-04T02:28:28.074Z,95528.50
2022-11-04T02:31:10.686Z,95530.34
2022-11-04T02:33:42.257Z,95524.84
2022-11-04T02:36:18.856Z,95521.41
2022-11-04T02:38:46.220Z,95522.06
2022-11-04T02:41:26.939Z,95522.44
2022-11-04T02:44:05.487Z,95513.53
2022-11-04T02:46:36.983Z,95518.31
2022-11-04T02:49:19.119Z,95517.03
2022-11-04T02:52:03.302Z,95511.22
2022-11-04T02:54:39.252Z,95493.41
2022-11-04T02:57:09.432Z,95505.28
2022-11-04T02:59:40.191Z,95472.97
2022-11-04T03:02:12.777Z,95509.09
2022-11-04T03:04:46.792Z,95511.41
2022-11-04T03:07:16.285Z,95504.22
2022-11-04T03:09:48.168Z,95505.41
2022-11-04T03:12:17.944Z,95502.94
2022-11-04T03:14:51.185Z,95510.38
2022-11-04T03:17:22.963Z,95496.38
2022-11-04T03:19:57.927Z,95484.31
2022-11-04T03:22:28.121Z,95503.69
2022-11-04T03:24:55.674Z,95500.44
2022-11-04T03:27:37.361Z,95479.72
2022-11-04T03:30:08.202Z,95499.16
2022-11-04T03:32:43.910Z,95507.38
2022-11-04T03:35:12.757Z,95513.75
2022-11-04T03:37:40.155Z,95487.50
2022-11-04T03:40:08.436Z,95499.09
2022-11-04T03:42:40.754Z,95506.50
2022-11-04T03:45:09.036Z,95510.19
2022-11-04T03:47:37.198Z,95504.59
2022-11-04T03:50:13.518Z,95511.31
2022-11-04T03:52:41.259Z,95498.97
2022-11-04T03:55:09.280Z,95493.72
2022-11-04T03:57:53.293Z,95499.91
2022-11-04T04:00:22.114Z,95496.88
2022-11-04T04:03:26.314Z,95490.53
2022-11-04T04:06:02.653Z,95499.66
2022-11-04T04:08:50.208Z,95494.66
2022-11-04T04:11:32.915Z,95495.47
2022-11-04T04:14:03.286Z,95499.69
2022-11-04T04:16:37.838Z,95501.22
2022-11-04T04:19:09.655Z,95504.53
2022-11-04T04:21:43.101Z,95499.75
2022-11-04T04:24:31.053Z,95497.91
2022-11-04T04:27:17.491Z,95501.59
2022-11-04T04:29:45.519Z,95487.34
2022-11-04T04:32:13.711Z,95492.13
2022-11-04T04:34:41.110Z,95485.50
2022-11-04T04:37:21.316Z,95493.06
2022-11-04T04:40:11.249Z,95499.41
2022-11-04T04:42:57.740Z,95476.09
2022-11-04T04:45:25.834Z,95501.06
2022-11-04T04:47:53.387Z,95499.78
2022-11-04T04:50:21.985Z,95492.41
2022-11-04T04:52:52.929Z,95494.44
2022-11-04T04:55:21.465Z,95504.50
2022-11-04T04:57:48.912Z,95484.97
2022-11-04T05:00:19.163Z,95494.81
2022-11-04T05:02:46.778Z,95489.66
2022-11-04T05:07:46.503Z,95481.72
2022-11-04T05:10:15.414Z,95492.25
2022-11-04T05:13:01.862Z,95493.72
2022-11-04T05:15:30.171Z,95496.78
2022-11-04T05:17:59.561Z,95478.50
2022-11-04T05:20:27.360Z,95500.00
2022-11-04T05:22:55.342Z,95492.97
2022-11-04T05:25:22.774Z,95495.38
2022-11-04T05:27:50.338Z,95501.94
2022-11-04T05:30:18.109Z,95510.59
2022-11-04T05:32:45.540Z,95496.50
2022-11-04T05:35:12.955Z,95507.28
2022-11-04T05:37:40.381Z,95493.72
2022-11-04T05:40:08.382Z,95503.53
2022-11-04T05:42:36.884Z,95494.84
2022-11-04T05:45:04.889Z,95513.81
2022-11-04T05:47:32.330Z,95497.97
2022-11-04T05:49:59.890Z,95497.16
2022-11-04T05:52:27.278Z,95518.81
2022-11-04T05:54:54.680Z,95513.66
2022-11-04T05:57:22.085Z,95517.44
2022-11-04T05:59:49.575Z,95517.44
2022-11-04T06:02:17.072Z,95515.22
2022-11-04T06:04:44.619Z,95487.09
2022-11-04T06:07:13.372Z,95521.47
2022-11-04T06:09:40.839Z,95514.47
2022-11-04T06:12:16.866Z,95514.47
2022-11-04T06:14:44.715Z,95512.88
2022-11-04T06:17:16.857Z,95509.38
2022-11-04T06:19:44.571Z,95507.59
2022-11-04T06:22:13.439Z,95510.75
2022-11-04T06:24:41.593Z,95514.72
2022-11-04T06:27:09.793Z,95514.50
2022-11-04T06:29:40.187Z,95514.34
2022-11-04T06:32:13.503Z,95515.16
2022-11-04T06:34:40.926Z,95505.66
2022-11-04T06:37:09.828Z,95514.41
2022-11-04T06:39:37.737Z,95521.50
2022-11-04T06:42:05.473Z,95523.78
2022-11-04T06:44:34.604Z,95525.53
2022-11-04T06:58:04.435Z,95556.25
2022-11-04T07:00:32.102Z,95541.41
2022-11-04T07:02:59.512Z,95537.28
2022-11-04T07:05:27.079Z,95548.41
2022-11-04T07:07:54.664Z,95538.53
2022-11-04T07:10:22.027Z,95510.84
2022-11-04T07:12:49.409Z,95517.91
2022-11-04T07:15:16.916Z,95524.25
2022-11-04T07:17:45.024Z,95490.47
2022-11-04T07:20:15.172Z,95507.66
2022-11-04T07:22:42.668Z,95510.00
2022-11-04T07:25:10.183Z,95495.47
2022-11-04T07:27:37.573Z,95490.78
2022-11-04T07:30:05.292Z,95498.13
2022-11-04T07:32:33.312Z,95509.56
2022-11-04T07:35:00.691Z,95485.88
2022-11-04T07:37:28.204Z,95494.88
2022-11-04T07:39:55.565Z,95488.72
2022-11-04T07:42:23.007Z,95486.06
2022-11-04T07:44:55.078Z,95477.22
2022-11-04T07:47:22.571Z,95491.50
2022-11-04T07:49:50.013Z,95482.69
2022-11-04T07:52:17.478Z,95482.75
2022-11-04T07:54:44.919Z,95474.91
2022-11-04T07:57:12.397Z,95448.09
2022-11-04T07:59:39.832Z,95463.22
2022-11-04T08:02:07.527Z,95474.19
2022-11-04T08:04:34.996Z,95466.81
2022-11-04T08:07:02.752Z,95456.47
2022-11-04T08:09:30.118Z,95462.72
2022-11-04T08:11:57.472Z,95460.69
2022-11-04T08:14:24.893Z,95442.06
2022-11-04T08:16:52.340Z,95453.69
2022-11-04T08:19:19.820Z,95449.78
2022-11-04T08:21:47.415Z,95434.72
2022-11-04T08:24:14.859Z,95438.84
2022-11-04T08:26:42.431Z,95429.34
2022-11-04T08:29:09.922Z,95422.97
2022-11-04T08:31:37.496Z,95428.56
2022-11-04T08:34:06.197Z,95430.88
2022-11-04T08:36:36.770Z,95415.78
2022-11-04T08:39:10.181Z,95418.88
2022-11-04T08:41:41.233Z,95433.34
2022-11-04T08:44:09.225Z,95420.09
2022-11-04T08:46:38.596Z,95429.38
2022-11-04T08:49:09.967Z,95425.00
2022-11-04T08:51:41.527Z,95397.06
2022-11-04T08:54:09.282Z,95405.94
2022-11-04T08:56:38.208Z,95410.44
2022-11-04T08:59:05.953Z,95393.44
2022-11-04T09:01:36.133Z,95401.09
2022-11-04T09:04:04.938Z,95382.84
2022-11-04T09:06:35.958Z,95372.41
2022-11-04T09:09:05.832Z,95377.06
2022-11-04T09:11:37.404Z,95375.75
2022-11-04T09:14:05.918Z,95374.19
2022-11-04T09:16:34.761Z,95357.59
2022-11-04T09:19:02.224Z,95370.91
2022-11-04T09:21:30.083Z,95343.50
2022-11-04T09:23:57.618Z,95357.16
2022-11-04T09:26:25.697Z,95361.41
2022-11-04T09:28:57.881Z,95353.19
2022-11-04T09:31:26.238Z,95348.69
2022-11-04T09:33:54.764Z,95345.78
2022-11-04T09:36:22.340Z,95339.75
2022-11-04T09:38:49.813Z,95323.38
2022-11-04T09:41:32.568Z,95324.38
2022-11-04T09:44:20.202Z,95319.03
2022-11-04T09:46:49.463Z,95300.19
2022-11-04T09:49:17.291Z,95296.69
2022-11-04T09:51:54.188Z,95309.63
2022-11-04T09:54:23.218Z,95288.47
2022-11-04T09:56:53.096Z,95293.50
2022-11-04T09:59:32.806Z,95279.53
2022-11-04T10:02:25.272Z,95304.94
2022-11-04T10:04:58.774Z,95292.28
2022-11-04T10:07:45.180Z,95278.44
2022-11-04T10:10:12.528Z,95281.78
2022-11-04T10:12:49.147Z,95277.94
2022-11-04T10:15:34.247Z,95285.44
2022-11-04T10:18:17.335Z,95270.44
2022-11-04T10:20:53.567Z,95279.50
2022-11-04T10:23:22.943Z,95269.09
2022-11-04T10:25:54.183Z,95278.63
2022-11-04T10:28:27.372Z,95266.81
2022-11-04T10:30:55.938Z,95270.66
2022-11-04T10:33:33.678Z,95262.63
2022-11-04T10:36:04.656Z,95262.44
2022-11-04T10:38:46.168Z,95239.53
2022-11-04T10:41:35.100Z,95255.47
2022-11-04T10:44:20.494Z,95245.13
2022-11-04T10:47:22.224Z,95256.28
2022-11-04T10:50:30.762Z,95251.28
2022-11-04T10:53:17.965Z,95242.66
2022-11-04T10:55:49.354Z,95230.22
2022-11-04T10:58:39.811Z,95240.50
2022-11-04T11:01:22.627Z,95242.75
2022-11-04T11:03:50.139Z,95234.09
2022-11-04T11:06:33.759Z,95226.63
2022-11-04T11:09:13.991Z,95231.16
2022-11-04T11:11:41.484Z,95221.03
2022-11-04T11:14:38.289Z,95221.13
2022-11-04T11:17:24.645Z,95213.34
2022-11-04T11:20:08.241Z,95214.63
2022-11-04T11:22:39.983Z,95222.00
2022-11-04T11:25:33.370Z,95214.94
2022-11-04T11:28:06.947Z,95214.50
2022-11-04T11:30:44.068Z,95206.69
2022-11-04T11:33:20.554Z,95213.91
2022-11-04T11:35:52.290Z,95197.72
2022-11-04T11:38:22.788Z,95190.47
2022-11-04T11:41:22.854Z,95205.75
2022-11-04T11:43:44.075Z,95186.94
2022-11-04T11:46:12.565Z,95192.13
2022-11-04T11:48:42.794Z,95193.00
2022-11-04T11:51:14.841Z,95196.28
2022-11-04T11:54:02.329Z,95193.22
2022-11-04T11:57:06.885Z,95179.75
2022-11-04T12:02:40.636Z,95175.69
2022-11-04T12:11:25.696Z,95175.09
2022-11-04T12:13:56.562Z,95144.69
2022-11-04T12:16:52.837Z,95171.56
2022-11-04T12:19:47.528Z,95160.44
2022-11-04T12:22:44.369Z,95158.00
2022-11-04T12:25:32.827Z,95153.50
2022-11-04T12:28:31.263Z,95155.66
2022-11-04T12:31:13.612Z,95148.06
2022-11-04T12:33:49.289Z,95153.22
2022-11-04T12:36:25.717Z,95129.53
2022-11-04T12:39:14.106Z,95124.63
2022-11-04T12:42:29.627Z,95140.91
2022-11-04T12:45:17.330Z,95131.63
2022-11-04T12:47:46.323Z,95139.78
2022-11-04T12:50:42.588Z,95127.22
2022-11-04T12:53:17.405Z,95127.78
2022-11-04T12:56:14.562Z,95122.56
2022-11-04T12:59:00.880Z,95124.47
2022-11-04T13:01:35.400Z,95109.75
2022-11-04T13:04:18.200Z,95109.19
2022-11-04T13:06:48.983Z,95104.66
2022-11-04T13:09:56.325Z,95109.91
2022-11-04T13:12:44.259Z,95107.09
2022-11-04T13:15:24.938Z,95106.66
2022-11-04T13:17:58.118Z,95096.59
2022-11-04T13:20:43.378Z,95097.09
2022-11-04T13:23:20.139Z,95091.34
2022-11-04T13:25:48.198Z,95088.47
2022-11-04T13:28:17.565Z,95092.81
2022-11-04T13:31:03.169Z,95105.50
2022-11-04T13:33:48.064Z,95088.59
2022-11-04T13:36:22.421Z,95088.97
2022-11-04T13:39:04.737Z,95095.16
2022-11-04T13:41:59.913Z,95104.22
2022-11-04T13:44:35.979Z,95092.22
2022-11-04T13:47:11.906Z,95098.53
2022-11-04T13:49:39.361Z,95080.50
2022-11-04T13:52:11.979Z,95095.34
2022-11-04T13:54:53.067Z,95096.88
2022-11-04T13:57:31.344Z,95082.09
2022-11-04T14:00:10.976Z,95092.03
2022-11-04T14:02:46.645Z,95081.69
2022-11-04T14:05:34.557Z,95095.88
2022-11-04T14:08:02.178Z,95085.66
2022-11-04T14:10:53.678Z,95090.19
2022-11-04T14:13:32.994Z,95084.19
2022-11-04T14:16:05.773Z,95080.41
2022-11-04T14:18:35.572Z,95080.16
2022-11-04T14:21:12.902Z,95077.66
2022-11-04T14:23:46.364Z,95068.59
2022-11-04T14:26:18.781Z,95084.44
2022-11-04T14:28:48.736Z,95077.38
2022-11-04T14:31:35.032Z,95066.66
2022-11-04T14:34:03.407Z,95061.06
2022-11-04T14:36:40.739Z,95053.31
2022-11-04T14:39:11.229Z,95062.06
2022-11-04T14:41:41.595Z,95060.69
2022-11-04T14:44:47.978Z,95054.88
2022-11-04T14:47:25.498Z,95041.25
2022-11-04T14:49:58.894Z,95037.13
2022-11-04T14:52:38.953Z,95056.22
2022-11-04T14:55:22.831Z,95056.38
2022-11-04T14:57:54.954Z,95055.56
2022-11-04T15:00:33.318Z,95035.97
2022-11-04T15:03:11.182Z,95041.63
2022-11-04T15:05:50.865Z,95036.72
2022-11-04T15:08:38.665Z,95026.88
2022-11-04T15:11:19.089Z,95009.88
2022-11-04T15:13:47.489Z,95027.13
2022-11-04T15:16:18.676Z,95021.91
2022-11-04T15:18:46.319Z,95022.16
2022-11-04T15:21:14.222Z,95016.09
2022-11-04T15:23:47.338Z,95021.78
2022-11-04T15:26:30.016Z,95013.81
2022-11-04T15:29:02.210Z,95014.09
2022-11-04T15:31:31.721Z,95011.69
2022-11-04T15:34:01.156Z,94994.97
2022-11-04T15:36:36.610Z,95016.19
2022-11-04T15:39:03.960Z,95026.00
2022-11-04T15:41:50.375Z,95009.53
2022-11-04T15:44:20.903Z,94997.06
2022-11-04T15:46:54.962Z,95021.22
2022-11-04T15:49:28.258Z,95018.41
2022-11-04T15:51:59.695Z,95024.44
2022-11-04T15:54:31.943Z,95025.72
2022-11-04T15:57:01.459Z,95016.22
2022-11-04T15:59:32.475Z,95020.00
2022-11-04T16:02:00.386Z,95022.13
2022-11-04T16:04:28.632Z,95004.59
2022-11-04T16:07:10.078Z,95015.50
2022-11-04T16:09:52.431Z,95021.91
2022-11-04T16:12:38.173Z,95012.31
2022-11-04T16:15:05.971Z,95014.88
2022-11-04T16:17:33.603Z,95001.25
2022-11-04T16:20:04.117Z,94999.13
2022-11-04T16:22:40.830Z,94994.94
2022-11-04T16:25:11.771Z,95008.88
2022-11-04T16:27:39.886Z,95001.19
2022-11-04T16:30:10.815Z,95019.31
2022-11-04T16:32:47.972Z,95021.25
2022-11-04T16:35:20.143Z,95017.06
2022-11-04T16:37:48.648Z,95033.56
2022-11-04T16:40:16.290Z,95031.34
2022-11-04T16:42:44.847Z,95031.94
2022-11-04T16:45:25.560Z,95023.06
2022-11-04T16:47:53.933Z,95027.34
2022-11-04T16:50:22.313Z,95043.91
2022-11-04T16:52:49.902Z,95024.56
2022-11-04T16:55:18.103Z,95028.81
2022-11-04T16:57:46.765Z,95009.78
2022-11-04T17:00:22.787Z,95028.00
2022-11-04T17:02:51.355Z,95025.28
2022-11-04T17:05:19.899Z,95020.94
2022-11-04T17:07:53.623Z,95006.19
2022-11-04T17:10:26.819Z,95024.94
2022-11-04T17:12:54.651Z,95027.31
2022-11-04T17:15:22.672Z,95028.63
2022-11-04T17:17:50.250Z,95024.88
2022-11-04T17:20:18.282Z,95025.03
2022-11-04T17:22:47.070Z,95026.16
2022-11-04T17:25:21.513Z,95027.75
2022-11-04T17:27:49.236Z,95009.84
2022-11-04T17:30:17.781Z,95012.31
2022-11-04T17:32:46.116Z,95016.56
2022-11-04T17:35:14.105Z,95018.34
2022-11-04T17:37:41.858Z,95018.66
2022-11-04T17:40:14.067Z,95011.91
2022-11-04T17:43:00.097Z,95002.97
2022-11-04T17:45:27.829Z,95001.34
2022-11-04T17:47:55.212Z,95005.69
2022-11-04T17:50:23.033Z,95016.75
2022-11-04T17:52:50.568Z,95016.84
2022-11-04T17:55:21.865Z,95007.56
2022-11-04T17:57:52.243Z,95008.38
2022-11-04T18:00:25.977Z,94991.69
2022-11-04T18:02:53.626Z,94989.56
2022-11-04T18:10:40.447Z,94995.50
2022-11-04T18:13:08.392Z,94993.06
2022-11-04T18:15:36.119Z,94994.78
2022-11-04T18:18:03.670Z,94991.72
2022-11-04T18:20:31.431Z,95006.84
2022-11-04T18:23:00.242Z,95005.41
2022-11-04T18:25:27.780Z,94989.56
2022-11-04T18:27:55.355Z,94980.63
2022-11-04T18:30:23.236Z,94979.41
2022-11-04T18:32:50.907Z,94974.00
2022-11-04T18:35:18.706Z,94971.63
2022-11-04T18:37:47.603Z,94970.91
2022-11-04T18:40:16.200Z,94959.53
2022-11-04T18:42:44.568Z,94952.00
2022-11-04T18:45:12.105Z,94957.72
2022-11-04T18:47:39.683Z,94957.72
2022-11-04T18:50:07.522Z,94951.16
2022-11-04T18:52:34.932Z,94952.81
2022-11-04T18:55:02.370Z,94954.44
2022-11-04T18:57:29.987Z,94961.16
2022-11-04T18:59:57.593Z,94957.16
2022-11-04T19:02:25.359Z,94949.03
2022-11-04T19:04:53.249Z,94954.53
2022-11-04T19:07:20.978Z,94954.53
2022-11-04T19:09:48.467Z,94956.09
2022-11-04T19:12:35.575Z,94949.13
2022-11-04T19:15:05.390Z,94957.56
2022-11-04T19:17:35.331Z,94963.78
2022-11-04T19:20:10.198Z,94948.09
2022-11-04T19:22:39.319Z,94950.44
2022-11-04T19:25:07.317Z,94943.16
2022-11-04T19:27:35.161Z,94955.13
2022-11-04T19:30:02.912Z,94955.69
2022-11-04T19:32:30.384Z,94941.84
2022-11-04T19:34:57.884Z,94942.09
2022-11-04T19:37:25.443Z,94955.22
2022-11-04T19:39:53.226Z,94938.47
2022-11-04T19:42:39.377Z,94945.03
2022-11-04T19:45:07.409Z,94959.63
2022-11-04T19:47:35.051Z,94957.41
2022-11-04T19:50:02.875Z,94962.81
2022-11-04T19:52:31.019Z,94961.97
2022-11-04T19:54:58.600Z,94963.53
2022-11-04T19:57:27.302Z,94957.88
2022-11-04T19:59:54.794Z,94964.44
2022-11-04T20:02:23.011Z,94957.06
2022-11-04T20:04:50.509Z,94961.16
2022-11-04T20:07:17.984Z,94947.06
2022-11-04T20:09:45.526Z,94941.34
2022-11-04T20:12:31.712Z,94943.44
2022-11-04T20:14:59.403Z,94940.19
2022-11-04T20:17:26.972Z,94934.19
2022-11-04T20:19:54.543Z,94934.44
2022-11-04T20:22:21.942Z,94945.25
2022-11-04T20:24:49.517Z,94939.59
2022-11-04T20:27:16.958Z,94937.38
2022-11-04T20:29:44.726Z,94920.81
2022-11-04T20:32:12.303Z,94924.34
2022-11-04T20:34:40.124Z,94932.47
2022-11-04T20:37:07.941Z,94931.38
2022-11-04T20:39:35.497Z,94930.94
2022-11-04T20:42:03.161Z,94938.84
2022-11-04T20:44:30.758Z,94935.88
2022-11-04T20:46:58.307Z,94934.41
2022-11-04T20:49:25.860Z,94939.66
2022-11-04T20:51:55.372Z,94935.69
2022-11-04T20:54:23.322Z,94937.94
2022-11-04T20:56:50.784Z,94933.56
2022-11-04T20:59:18.434Z,94932.19
2022-11-04T21:01:47.735Z,94934.16
2022-11-04T21:04:21.501Z,94942.00
2022-11-04T21:06:50.362Z,94936.25
2022-11-04T21:09:19.951Z,94930.28
2022-11-04T21:11:47.427Z,94928.16
2022-11-04T21:14:16.681Z,94929.56
2022-11-04T21:16:44.174Z,94903.66
2022-11-04T21:19:16.918Z,94918.91
2022-11-04T21:21:48.744Z,94921.03
2022-11-04T21:24:16.926Z,94915.06
2022-11-04T21:26:45.721Z,94923.47
2022-11-04T21:29:15.796Z,94911.84
2022-11-04T21:31:44.482Z,94909.16
2022-11-04T21:34:12.676Z,94906.69
2022-11-04T21:36:40.484Z,94899.06
2022-11-04T21:39:11.028Z,94903.09
2022-11-04T21:41:38.959Z,94896.28
2022-11-04T21:44:08.750Z,94887.25
2022-11-04T21:46:36.471Z,94891.94
2022-11-04T21:49:03.886Z,94894.91
2022-11-04T21:51:32.656Z,94897.91
2022-11-04T21:54:00.418Z,94883.28
2022-11-04T21:56:29.633Z,94888.78
2022-11-04T21:58:57.207Z,94887.59
2022-11-04T22:01:26.408Z,94898.97
2022-11-04T22:03:56.177Z,94897.09
2022-11-04T22:06:26.624Z,94906.00
2022-11-04T22:08:56.982Z,94901.94
2022-11-04T22:11:29.240Z,94899.56
2022-11-04T22:14:01.828Z,94888.91
2022-11-04T22:16:32.364Z,94900.03
2022-11-04T22:19:01.582Z,94897.25
2022-11-04T22:21:29.843Z,94905.44
2022-11-04T22:23:58.342Z,94905.19
2022-11-04T22:26:31.673Z,94899.94
2022-11-04T22:28:59.755Z,94898.06
2022-11-04T22:31:32.277Z,94904.88
2022-11-04T22:34:00.851Z,94896.28
2022-11-04T22:36:28.865Z,94896.44
2022-11-04T22:38:57.038Z,94899.25
2022-11-04T22:41:30.504Z,94885.06
2022-11-04T22:43:58.701Z,94892.00
2022-11-04T22:46:31.595Z,94890.47
2022-11-04T22:49:01.773Z,94898.22
2022-11-04T22:51:31.357Z,94904.19
2022-11-04T22:54:04.592Z,94898.13
2022-11-04T22:56:35.513Z,94893.28
2022-11-04T22:59:03.071Z,94881.94
2022-11-04T23:01:31.792Z,94881.78
2022-11-04T23:03:59.843Z,94900.91
2022-11-04T23:06:27.411Z,94904.44
2022-11-04T23:09:00.452Z,94905.25
2022-11-04T23:11:47.995Z,94893.03
2022-11-04T23:14:36.522Z,94892.47
2022-11-04T23:17:39.350Z,94903.41
2022-11-04T23:20:12.732Z,94918.16
2022-11-04T23:22:58.603Z,94897.28
2022-11-04T23:25:26.465Z,94918.41
2022-11-04T23:28:13.978Z,94908.22
2022-11-04T23:30:45.807Z,94901.97
2022-11-04T23:33:14.782Z,94885.53
2022-11-04T23:36:05.929Z,94890.59
2022-11-04T23:38:33.820Z,94882.25
2022-11-04T23:41:22.360Z,94886.47
2022-11-04T23:43:49.958Z,94887.31
2022-11-04T23:46:42.219Z,94876.03
2022-11-04T23:49:30.047Z,94854.91
2022-11-04T23:52:16.018Z,94862.91
2022-11-04T23:55:09.463Z,94861.38
2022-11-04T23:57:55.251Z,94860.56
